Time;durP1;ratioP1;P1;durP2;ratioP2;P2;SDS_P1;SDS_P2;PMS_P1;PMS_P2;Temp;Humidity;BMP_temperature;BMP_pressure;BME280_temperature;BME280_humidity;BME280_pressure;Samples;Min_cycle;Max_cycle;Signal;HPM_P1;HPM_P2
2022/01/18 00:01:54;;;;;;;21.95;10.63;;;;;;;;;;5119968;27;20019;-78
2022/01/18 00:04:20;;;;;;;16.27;7.85;;;;;;;;;;5118369;27;20152;-78
2022/01/18 00:06:49;;;;;;;3.55;2.00;;;;;;;;;;5118313;27;20023;-78
2022/01/18 00:09:18;;;;;;;6.88;3.80;;;;;;;;;;5118073;27;20069;-78
2022/01/18 00:11:48;;;;;;;6.97;3.63;;;;;;;;;;5119366;27;20140;-78
2022/01/18 00:14:26;;;;;;;7.13;3.58;;;;;;;;;;5119189;27;20114;-78
2022/01/18 00:19:40;;;;;;;10.40;6.18;;;;;;;;;;5117465;27;20035;-79
2022/01/18 00:24:31;;;;;;;22.20;10.00;;;;;;;;;;5119496;27;20805;-78
2022/01/18 00:26:57;;;;;;;49.10;24.15;;;;;;;;;;5118572;27;20019;-78
2022/01/18 00:29:24;;;;;;;35.30;20.20;;;;;;;;;;5117577;27;20023;-79
2022/01/18 00:32:06;;;;;;;46.20;23.75;;;;;;;;;;5117873;27;20023;-77
2022/01/18 00:34:35;;;;;;;70.78;34.38;;;;;;;;;;5118987;27;20027;-79
2022/01/18 00:39:31;;;;;;;75.85;37.90;;;;;;;;;;5119150;27;20034;-81
2022/01/18 00:41:57;;;;;;;67.60;32.90;;;;;;;;;;5117366;27;20027;-81
2022/01/18 00:44:22;;;;;;;68.30;35.60;;;;;;;;;;5117283;27;20030;-80
2022/01/18 00:46:48;;;;;;;49.05;24.65;;;;;;;;;;5117582;27;20019;-80
2022/01/18 00:49:14;;;;;;;49.40;25.40;;;;;;;;;;5117340;27;20015;-80
2022/01/18 00:51:40;;;;;;;46.40;23.45;;;;;;;;;;5119103;27;20110;-79
2022/01/18 00:54:07;;;;;;;48.47;24.08;;;;;;;;;;5116142;27;20059;-79
2022/01/18 00:56:33;;;;;;;46.95;23.77;;;;;;;;;;5118032;27;20023;-78
2022/01/18 00:59:01;;;;;;;52.28;27.10;;;;;;;;;;5117204;27;20029;-79
2022/01/18 01:01:29;;;;;;;44.95;23.20;;;;;;;;;;5116505;27;20184;-79
2022/01/18 01:03:57;;;;;;;27.80;15.15;;;;;;;;;;5115554;27;20371;-79
2022/01/18 01:06:23;;;;;;;31.85;16.92;;;;;;;;;;5116695;27;20029;-80
2022/01/18 01:08:49;;;;;;;34.90;17.98;;;;;;;;;;5118499;27;20045;-80
2022/01/18 01:11:14;;;;;;;28.45;15.38;;;;;;;;;;5111051;27;20035;-79
2022/01/18 01:13:43;;;;;;;38.42;22.15;;;;;;;;;;5105318;27;20027;-80
2022/01/18 01:35:30;;;;;;;48.13;20.98;;;;;;;;;;5138522;27;20135;-78
2022/01/18 01:44:04;;;;;;;29.60;14.38;;;;;;;;;;5118076;27;20029;-78
2022/01/18 01:46:18;;;;;;;14.43;7.13;;;;;;;;;;5108328;27;20110;-78
2022/01/18 01:48:46;;;;;;;16.15;7.47;;;;;;;;;;5116357;27;20033;-77
2022/01/18 01:51:11;;;;;;;9.10;4.78;;;;;;;;;;5117535;27;20025;-79
2022/01/18 01:53:37;;;;;;;5.65;3.55;;;;;;;;;;5117722;27;20377;-77
2022/01/18 01:56:03;;;;;;;5.65;3.80;;;;;;;;;;5116156;27;20058;-79
2022/01/18 01:58:28;;;;;;;4.72;3.20;;;;;;;;;;5111111;27;20497;-78
2022/01/18 02:00:55;;;;;;;13.52;6.05;;;;;;;;;;5103906;27;20111;-81
2022/01/18 02:03:21;;;;;;;6.65;4.18;;;;;;;;;;5106352;27;20110;-78
2022/01/18 02:05:46;;;;;;;5.45;3.35;;;;;;;;;;5097566;27;20107;-78
2022/01/18 02:08:12;;;;;;;15.60;7.78;;;;;;;;;;5096380;28;20019;-77
2022/01/18 02:10:40;;;;;;;12.88;5.90;;;;;;;;;;5095128;28;20031;-80
2022/01/18 02:13:06;;;;;;;14.60;7.28;;;;;;;;;;5095931;28;20138;-80
2022/01/18 02:15:36;;;;;;;13.35;7.10;;;;;;;;;;5096409;28;20028;-79
2022/01/18 02:23:30;;;;;;;10.32;5.15;;;;;;;;;;5116804;27;20095;-79
2022/01/18 02:25:56;;;;;;;32.13;15.88;;;;;;;;;;5115254;27;20059;-79
2022/01/18 02:28:22;;;;;;;24.85;11.05;;;;;;;;;;5117735;27;20087;-78
2022/01/18 02:30:48;;;;;;;39.67;18.08;;;;;;;;;;5116947;27;20023;-77
2022/01/18 02:33:14;;;;;;;17.80;8.70;;;;;;;;;;5114993;27;20355;-80
2022/01/18 02:35:40;;;;;;;8.50;5.22;;;;;;;;;;5116657;27;20031;-80
2022/01/18 02:38:05;;;;;;;7.00;4.10;;;;;;;;;;5116852;27;20030;-80
2022/01/18 02:40:31;;;;;;;11.70;7.10;;;;;;;;;;5115153;27;20027;-79
2022/01/18 02:43:46;;;;;;;8.27;4.90;;;;;;;;;;5115273;27;20037;-80
2022/01/18 02:45:47;;;;;;;9.43;4.82;;;;;;;;;;5116590;27;20457;-78
2022/01/18 02:48:13;;;;;;;7.82;5.60;;;;;;;;;;5114753;27;20046;-79
2022/01/18 02:50:38;;;;;;;8.18;5.15;;;;;;;;;;5115233;27;20106;-79
2022/01/18 02:53:03;;;;;;;15.35;8.98;;;;;;;;;;5114851;27;20476;-78
2022/01/18 02:55:29;;;;;;;20.30;12.57;;;;;;;;;;5114920;27;20073;-78
2022/01/18 02:58:02;;;;;;;64.60;31.42;;;;;;;;;;5116085;27;20046;-80
2022/01/18 03:00:43;;;;;;;39.47;25.30;;;;;;;;;;5114416;27;20531;-80
2022/01/18 03:03:17;;;;;;;20.20;11.65;;;;;;;;;;5114781;27;20019;-79
2022/01/18 03:05:43;;;;;;;36.22;20.15;;;;;;;;;;5116298;27;20047;-78
2022/01/18 03:08:10;;;;;;;57.60;30.08;;;;;;;;;;5114299;27;20038;-79
2022/01/18 03:10:36;;;;;;;88.70;44.10;;;;;;;;;;5131996;27;20424;-78
2022/01/18 03:13:01;;;;;;;64.78;33.97;;;;;;;;;;5136917;27;20047;-80
2022/01/18 03:15:27;;;;;;;45.95;24.05;;;;;;;;;;5130033;27;20023;-80
2022/01/18 03:17:52;;;;;;;61.05;30.40;;;;;;;;;;5107436;27;20034;-79
2022/01/18 03:20:19;;;;;;;42.20;22.27;;;;;;;;;;5095471;28;20019;-78
2022/01/18 03:22:46;;;;;;;29.02;15.75;;;;;;;;;;5095514;28;20026;-77
2022/01/18 03:25:40;;;;;;;17.40;9.88;;;;;;;;;;5095872;28;20027;-78
2022/01/18 03:28:07;;;;;;;15.48;9.50;;;;;;;;;;5095179;28;20119;-78
2022/01/18 03:30:36;;;;;;;22.02;11.90;;;;;;;;;;5095056;28;20426;-79
2022/01/18 03:33:03;;;;;;;18.40;10.40;;;;;;;;;;5094022;28;20023;-78
2022/01/18 03:35:28;;;;;;;11.77;8.15;;;;;;;;;;5095397;28;20044;-80
2022/01/18 03:37:53;;;;;;;12.15;7.80;;;;;;;;;;5095452;28;20027;-79
2022/01/18 03:40:19;;;;;;;9.02;4.82;;;;;;;;;;5093885;28;20059;-78
2022/01/18 03:42:46;;;;;;;13.57;8.68;;;;;;;;;;5095621;28;20103;-79
2022/01/18 03:45:23;;;;;;;157.50;67.32;;;;;;;;;;5095337;28;20024;-79
2022/01/18 03:47:49;;;;;;;72.55;31.25;;;;;;;;;;5093567;28;20358;-79
2022/01/18 03:50:15;;;;;;;44.90;22.20;;;;;;;;;;5095150;28;20030;-78
2022/01/18 03:52:41;;;;;;;39.20;19.85;;;;;;;;;;5093806;28;20024;-79
2022/01/18 03:55:07;;;;;;;48.65;23.38;;;;;;;;;;5093861;28;20085;-77
2022/01/18 03:57:32;;;;;;;53.75;24.92;;;;;;;;;;5094981;28;20019;-79
2022/01/18 03:59:58;;;;;;;39.92;20.63;;;;;;;;;;5095923;28;20375;-79
2022/01/18 04:02:23;;;;;;;34.10;15.95;;;;;;;;;;5093516;28;20038;-79
2022/01/18 04:04:48;;;;;;;28.85;15.07;;;;;;;;;;5095290;28;20024;-77
2022/01/18 04:07:14;;;;;;;29.42;14.82;;;;;;;;;;5094896;28;20533;-79
2022/01/18 04:09:39;;;;;;;24.98;13.15;;;;;;;;;;5093410;28;20035;-79
2022/01/18 04:12:05;;;;;;;19.95;11.65;;;;;;;;;;5094688;28;20130;-78
2022/01/18 04:14:31;;;;;;;35.13;17.55;;;;;;;;;;5095033;28;20024;-78
2022/01/18 04:25:51;;;;;;;34.88;20.23;;;;;;;;;;5094865;28;20024;-79
2022/01/18 04:28:01;;;;;;;28.98;16.15;;;;;;;;;;5108309;27;20045;-80
2022/01/18 04:30:27;;;;;;;19.13;12.05;;;;;;;;;;5117731;27;20084;-79
2022/01/18 04:32:52;;;;;;;21.10;13.00;;;;;;;;;;5118558;27;20019;-79
2022/01/18 04:35:18;;;;;;;32.83;17.50;;;;;;;;;;5119491;27;20517;-79
2022/01/18 04:37:43;;;;;;;10.23;6.85;;;;;;;;;;5118809;27;20023;-79
2022/01/18 04:40:13;;;;;;;11.07;7.22;;;;;;;;;;5116824;27;20499;-78
2022/01/18 04:43:17;;;;;;;41.13;18.92;;;;;;;;;;5119140;27;20054;-79
2022/01/18 04:48:26;;;;;;;30.75;17.00;;;;;;;;;;5118583;27;20034;-79
2022/01/18 04:51:02;;;;;;;33.03;18.75;;;;;;;;;;5118835;27;20019;-79
2022/01/18 04:53:30;;;;;;;27.92;15.30;;;;;;;;;;5118801;27;20026;-78
2022/01/18 04:55:57;;;;;;;51.22;27.02;;;;;;;;;;5118514;27;20109;-80
2022/01/18 04:58:24;;;;;;;27.05;15.75;;;;;;;;;;5118730;27;20076;-79
2022/01/18 05:00:50;;;;;;;29.00;16.85;;;;;;;;;;5116894;27;20027;-79
2022/01/18 05:03:15;;;;;;;20.70;12.15;;;;;;;;;;5119282;27;20105;-79
2022/01/18 05:05:41;;;;;;;10.93;7.53;;;;;;;;;;5117182;27;20529;-79
2022/01/18 05:08:12;;;;;;;10.93;6.53;;;;;;;;;;5118775;27;20019;-79
2022/01/18 05:10:37;;;;;;;8.40;6.25;;;;;;;;;;5119554;27;20023;-78
2022/01/18 05:13:13;;;;;;;11.10;6.75;;;;;;;;;;5116919;27;20150;-79
2022/01/18 05:15:45;;;;;;;93.22;43.38;;;;;;;;;;5118181;27;20135;-79
2022/01/18 05:21:22;;;;;;;91.47;39.92;;;;;;;;;;5118162;27;20030;-79
2022/01/18 05:23:40;;;;;;;53.45;28.58;;;;;;;;;;5117713;27;20493;-80
2022/01/18 05:26:06;;;;;;;44.25;26.98;;;;;;;;;;5118107;27;20015;-79
2022/01/18 05:28:31;;;;;;;33.95;19.70;;;;;;;;;;5118667;27;20019;-79
2022/01/18 05:30:57;;;;;;;32.35;18.63;;;;;;;;;;5117755;27;20479;-79
2022/01/18 05:33:22;;;;;;;32.60;18.98;;;;;;;;;;5118901;27;20027;-79
2022/01/18 05:35:48;;;;;;;61.15;30.67;;;;;;;;;;5116547;27;20031;-79
2022/01/18 05:38:13;;;;;;;40.13;19.02;;;;;;;;;;5117775;27;20027;-80
2022/01/18 05:40:39;;;;;;;33.78;16.83;;;;;;;;;;5115736;27;20473;-78
2022/01/18 05:43:04;;;;;;;22.52;11.52;;;;;;;;;;5118601;27;20372;-79
2022/01/18 05:45:30;;;;;;;50.13;20.73;;;;;;;;;;5116301;27;20027;-78
2022/01/18 05:47:55;;;;;;;20.70;11.30;;;;;;;;;;5116105;27;20488;-80
2022/01/18 05:50:21;;;;;;;25.20;11.35;;;;;;;;;;5117789;27;20069;-78
2022/01/18 05:52:46;;;;;;;20.77;9.30;;;;;;;;;;5117987;27;20027;-79
2022/01/18 05:55:11;;;;;;;60.33;24.98;;;;;;;;;;5117565;27;21059;-78
2022/01/18 05:57:38;;;;;;;81.10;38.42;;;;;;;;;;5116563;27;20525;-77
2022/01/18 06:00:05;;;;;;;65.10;32.65;;;;;;;;;;5116201;27;20011;-78
2022/01/18 06:07:43;;;;;;;17.52;11.05;;;;;;;;;;5117576;27;20507;-79
2022/01/18 06:10:09;;;;;;;18.67;11.73;;;;;;;;;;5115209;27;20023;-79
2022/01/18 06:12:34;;;;;;;20.27;11.48;;;;;;;;;;5116563;27;20472;-79
2022/01/18 06:15:00;;;;;;;18.15;11.40;;;;;;;;;;5114440;27;20416;-79
2022/01/18 06:17:25;;;;;;;11.27;6.63;;;;;;;;;;5114764;27;20138;-79
2022/01/18 06:19:51;;;;;;;11.27;7.45;;;;;;;;;;5116908;27;20019;-79
2022/01/18 06:22:16;;;;;;;28.20;15.45;;;;;;;;;;5115661;27;20080;-79
2022/01/18 06:24:42;;;;;;;46.83;24.40;;;;;;;;;;5114794;27;20026;-78
2022/01/18 06:27:08;;;;;;;27.92;16.58;;;;;;;;;;5117685;27;20019;-78
2022/01/18 06:29:33;;;;;;;27.77;14.05;;;;;;;;;;5115312;27;20019;-77
2022/01/18 06:31:58;;;;;;;51.25;25.33;;;;;;;;;;5116586;27;20058;-78
2022/01/18 06:34:24;;;;;;;364.98;154.48;;;;;;;;;;5116374;27;20055;-80
2022/01/18 06:36:49;;;;;;;388.92;206.35;;;;;;;;;;5116759;27;20097;-79
2022/01/18 06:39:16;;;;;;;156.27;75.00;;;;;;;;;;5116242;27;20034;-80
2022/01/18 06:41:43;;;;;;;42.20;20.77;;;;;;;;;;5116872;27;20039;-78
2022/01/18 06:44:08;;;;;;;62.15;32.53;;;;;;;;;;5115271;27;20031;-79
2022/01/18 06:46:33;;;;;;;82.90;49.90;;;;;;;;;;5114795;27;20114;-78
2022/01/18 06:48:59;;;;;;;53.33;33.33;;;;;;;;;;5116698;27;20914;-79
2022/01/18 06:51:24;;;;;;;57.08;39.10;;;;;;;;;;5116349;27;20139;-79
2022/01/18 06:53:49;;;;;;;28.35;17.75;;;;;;;;;;5116778;27;20034;-78
2022/01/18 06:56:16;;;;;;;40.05;22.73;;;;;;;;;;5116414;27;20130;-78
2022/01/18 06:58:41;;;;;;;69.00;40.03;;;;;;;;;;5114558;27;20054;-80
2022/01/18 07:01:08;;;;;;;20.27;15.80;;;;;;;;;;5115395;27;20445;-79
2022/01/18 07:03:33;;;;;;;19.65;14.63;;;;;;;;;;5114795;27;20077;-78
2022/01/18 07:05:58;;;;;;;31.15;20.45;;;;;;;;;;5115765;27;20382;-79
2022/01/18 07:08:24;;;;;;;13.10;8.43;;;;;;;;;;5117277;27;21038;-78
2022/01/18 07:10:49;;;;;;;23.90;15.13;;;;;;;;;;5114597;27;20087;-79
2022/01/18 07:13:14;;;;;;;30.15;22.25;;;;;;;;;;5115479;27;20238;-79
2022/01/18 07:15:40;;;;;;;30.17;18.08;;;;;;;;;;5116088;27;20031;-79
2022/01/18 07:18:07;;;;;;;28.20;19.83;;;;;;;;;;5115012;27;20081;-78
2022/01/18 07:20:32;;;;;;;14.52;9.50;;;;;;;;;;5130651;27;20388;-79
2022/01/18 07:22:58;;;;;;;12.30;9.20;;;;;;;;;;5137341;27;20023;-79
2022/01/18 07:25:25;;;;;;;18.50;15.63;;;;;;;;;;5136923;27;20058;-79
2022/01/18 07:27:51;;;;;;;19.85;13.55;;;;;;;;;;5134774;27;20503;-79
2022/01/18 07:30:16;;;;;;;76.40;36.53;;;;;;;;;;5137332;27;20105;-79
2022/01/18 07:32:41;;;;;;;46.05;22.90;;;;;;;;;;5134887;27;20464;-80
2022/01/18 07:35:08;;;;;;;25.08;13.70;;;;;;;;;;5134533;27;20389;-78
2022/01/18 07:37:33;;;;;;;38.58;19.67;;;;;;;;;;5136117;27;20027;-78
2022/01/18 07:39:59;;;;;;;80.80;38.70;;;;;;;;;;5136435;27;20134;-78
2022/01/18 07:42:24;;;;;;;53.05;29.92;;;;;;;;;;5136700;27;20041;-80
2022/01/18 07:44:50;;;;;;;21.15;14.13;;;;;;;;;;5136116;27;20022;-79
2022/01/18 07:47:15;;;;;;;11.88;7.18;;;;;;;;;;5134683;27;20839;-77
2022/01/18 07:49:41;;;;;;;26.27;14.77;;;;;;;;;;5136235;27;20022;-79
2022/01/18 07:52:06;;;;;;;27.73;17.77;;;;;;;;;;5134682;27;20053;-79
2022/01/18 07:54:31;;;;;;;35.50;23.77;;;;;;;;;;5134370;27;20116;-78
2022/01/18 07:56:57;;;;;;;40.95;20.38;;;;;;;;;;5137001;27;20425;-78
2022/01/18 07:59:22;;;;;;;41.00;20.33;;;;;;;;;;5134517;27;20038;-81
2022/01/18 08:01:48;;;;;;;41.33;21.38;;;;;;;;;;5134591;27;20396;-79
2022/01/18 08:04:13;;;;;;;50.38;23.55;;;;;;;;;;5139069;27;20207;-80
2022/01/18 08:06:38;;;;;;;35.25;19.45;;;;;;;;;;5139311;27;20384;-79
2022/01/18 08:09:04;;;;;;;22.75;12.90;;;;;;;;;;5139619;27;20038;-79
2022/01/18 08:11:29;;;;;;;19.95;12.48;;;;;;;;;;5132540;27;20047;-79
2022/01/18 08:13:57;;;;;;;29.13;19.25;;;;;;;;;;5119477;27;20076;-80
2022/01/18 08:18:57;;;;;;;36.08;21.70;;;;;;;;;;5119379;27;20027;-78
2022/01/18 08:21:23;;;;;;;39.45;24.98;;;;;;;;;;5119117;27;20026;-80
2022/01/18 08:23:48;;;;;;;42.75;25.42;;;;;;;;;;5119025;27;20274;-79
2022/01/18 08:26:13;;;;;;;10.20;7.18;;;;;;;;;;5117861;27;20020;-78
2022/01/18 08:28:39;;;;;;;14.63;8.15;;;;;;;;;;5117856;27;20030;-79
2022/01/18 08:31:05;;;;;;;16.65;11.15;;;;;;;;;;5117168;27;20458;-79
2022/01/18 08:33:34;;;;;;;20.80;10.98;;;;;;;;;;5119403;27;20027;-78
2022/01/18 08:36:00;;;;;;;31.58;21.63;;;;;;;;;;5117484;27;20439;-80
2022/01/18 08:38:26;;;;;;;16.02;10.45;;;;;;;;;;5117310;27;20031;-79
2022/01/18 08:40:51;;;;;;;25.38;13.70;;;;;;;;;;5119174;27;20027;-79
2022/01/18 08:43:16;;;;;;;18.15;9.38;;;;;;;;;;5118806;27;20015;-78
2022/01/18 08:45:42;;;;;;;20.02;10.02;;;;;;;;;;5119010;27;20026;-78
2022/01/18 08:48:07;;;;;;;30.88;16.83;;;;;;;;;;5117319;27;20054;-78
2022/01/18 08:50:32;;;;;;;25.10;14.30;;;;;;;;;;5116485;27;20030;-77
2022/01/18 08:52:58;;;;;;;16.33;10.30;;;;;;;;;;5116982;27;20019;-79
2022/01/18 08:55:23;;;;;;;28.05;18.17;;;;;;;;;;5118297;27;20524;-78
2022/01/18 08:57:49;;;;;;;27.73;16.15;;;;;;;;;;5116407;27;20034;-79
2022/01/18 09:00:15;;;;;;;12.05;7.00;;;;;;;;;;5117183;27;20109;-78
2022/01/18 09:02:41;;;;;;;20.17;10.68;;;;;;;;;;5116944;27;20027;-78
2022/01/18 09:05:06;;;;;;;14.13;8.55;;;;;;;;;;5116654;27;20050;-78
2022/01/18 09:07:33;;;;;;;15.85;8.90;;;;;;;;;;5117357;27;20123;-78
2022/01/18 09:10:05;;;;;;;14.73;10.90;;;;;;;;;;5117240;27;21072;-78
2022/01/18 09:12:31;;;;;;;38.47;20.52;;;;;;;;;;5117022;27;20103;-79
2022/01/18 09:14:56;;;;;;;23.02;11.02;;;;;;;;;;5115769;27;20141;-78
2022/01/18 09:17:21;;;;;;;20.88;10.32;;;;;;;;;;5118254;27;20107;-77
2022/01/18 09:19:47;;;;;;;17.88;10.02;;;;;;;;;;5116374;27;20034;-81
2022/01/18 09:22:12;;;;;;;25.25;14.07;;;;;;;;;;5116202;27;20019;-78
2022/01/18 09:24:37;;;;;;;22.90;11.45;;;;;;;;;;5119118;27;20023;-78
2022/01/18 09:27:03;;;;;;;10.75;6.60;;;;;;;;;;5118321;27;20023;-78
2022/01/18 09:29:29;;;;;;;26.77;14.55;;;;;;;;;;5116610;27;20900;-79
2022/01/18 09:31:55;;;;;;;21.83;11.32;;;;;;;;;;5116359;27;20023;-79
2022/01/18 09:34:21;;;;;;;17.48;10.07;;;;;;;;;;5115900;27;20034;-79
2022/01/18 09:36:46;;;;;;;10.73;6.45;;;;;;;;;;5116447;27;20110;-78
2022/01/18 09:39:12;;;;;;;22.13;11.60;;;;;;;;;;5117543;27;20018;-77
2022/01/18 09:41:40;;;;;;;23.20;11.98;;;;;;;;;;5118043;27;20023;-79
2022/01/18 09:44:06;;;;;;;36.53;17.35;;;;;;;;;;5117644;27;20045;-77
2022/01/18 09:46:32;;;;;;;45.28;20.95;;;;;;;;;;5115982;27;20015;-78
2022/01/18 09:48:57;;;;;;;64.35;30.67;;;;;;;;;;5116542;27;20026;-78
2022/01/18 09:51:23;;;;;;;49.10;24.40;;;;;;;;;;5116265;27;20106;-78
2022/01/18 09:53:49;;;;;;;39.53;19.55;;;;;;;;;;5115603;27;20055;-78
2022/01/18 09:56:15;;;;;;;36.92;19.15;;;;;;;;;;5117464;27;20458;-77
2022/01/18 09:58:40;;;;;;;23.30;11.52;;;;;;;;;;5117379;27;20015;-77
2022/01/18 10:01:06;;;;;;;16.63;8.60;;;;;;;;;;5115807;27;20031;-79
2022/01/18 10:03:36;;;;;;;20.08;9.90;;;;;;;;;;5117369;27;20019;-78
2022/01/18 10:06:02;;;;;;;23.90;12.68;;;;;;;;;;5115861;27;20046;-79
2022/01/18 10:08:28;;;;;;;11.75;8.15;;;;;;;;;;5117102;27;20023;-79
2022/01/18 10:10:55;;;;;;;10.63;6.18;;;;;;;;;;5115742;27;20068;-78
2022/01/18 10:13:22;;;;;;;21.00;11.35;;;;;;;;;;5115488;27;20059;-78
2022/01/18 10:16:04;;;;;;;26.85;13.20;;;;;;;;;;5133701;27;20030;-77
2022/01/18 10:18:37;;;;;;;37.80;20.00;;;;;;;;;;5136043;27;20101;-77
2022/01/18 10:21:06;;;;;;;22.23;12.10;;;;;;;;;;5138682;27;20056;-79
2022/01/18 10:23:31;;;;;;;13.55;9.23;;;;;;;;;;5122222;27;20028;-77
2022/01/18 10:25:56;;;;;;;17.80;10.77;;;;;;;;;;5107103;27;20420;-79
2022/01/18 10:28:32;;;;;;;20.35;11.65;;;;;;;;;;5094822;28;20020;-78
2022/01/18 10:31:00;;;;;;;13.75;7.50;;;;;;;;;;5096560;28;20020;-76
2022/01/18 10:33:29;;;;;;;12.85;6.63;;;;;;;;;;5094474;28;20059;-79
2022/01/18 10:36:04;;;;;;;21.25;11.20;;;;;;;;;;5094393;28;20035;-77
2022/01/18 10:38:30;;;;;;;16.27;9.30;;;;;;;;;;5094194;28;20031;-79
2022/01/18 10:40:55;;;;;;;10.70;5.82;;;;;;;;;;5094464;28;20032;-77
2022/01/18 10:43:31;;;;;;;17.77;11.23;;;;;;;;;;5096256;28;20031;-78
2022/01/18 10:46:13;;;;;;;20.60;11.43;;;;;;;;;;5096508;28;20531;-78
2022/01/18 10:48:46;;;;;;;11.85;5.90;;;;;;;;;;5103380;27;20617;-79
2022/01/18 10:51:27;;;;;;;11.25;6.13;;;;;;;;;;5116486;27;20485;-76
2022/01/18 10:53:57;;;;;;;16.05;7.97;;;;;;;;;;5114871;27;20074;-78
2022/01/18 10:56:22;;;;;;;;;;;;;;;;;;5115128;27;20060;-76
2022/01/18 10:58:48;;;;;;;14.80;10.70;;;;;;;;;;5116440;27;20002;-78
2022/01/18 11:01:17;;;;;;;13.40;8.50;;;;;;;;;;5116594;27;20122;-77
2022/01/18 11:04:02;;;;;;;13.10;7.55;;;;;;;;;;5115856;27;20023;-76
2022/01/18 11:06:27;;;;;;;15.77;8.82;;;;;;;;;;5116263;27;20015;-76
2022/01/18 11:08:53;;;;;;;16.85;7.72;;;;;;;;;;5114510;27;20389;-79
2022/01/18 11:11:25;;;;;;;11.88;5.85;;;;;;;;;;5115330;27;20019;-77
2022/01/18 11:13:50;;;;;;;10.57;6.07;;;;;;;;;;5114616;27;20442;-78
2022/01/18 11:16:25;;;;;;;12.73;5.75;;;;;;;;;;5115674;27;20067;-79
2022/01/18 11:18:50;;;;;;;13.88;8.20;;;;;;;;;;5115624;27;20027;-77
2022/01/18 11:21:19;;;;;;;7.93;5.03;;;;;;;;;;5115906;27;20029;-78
2022/01/18 11:23:44;;;;;;;12.13;4.57;;;;;;;;;;5116403;27;20042;-78
2022/01/18 11:26:10;;;;;;;15.65;7.35;;;;;;;;;;5115683;27;20061;-78
2022/01/18 11:28:37;;;;;;;9.13;6.35;;;;;;;;;;5117352;27;20015;-77
2022/01/18 11:31:02;;;;;;;8.50;4.15;;;;;;;;;;5114222;27;20164;-78
2022/01/18 11:33:30;;;;;;;9.73;4.18;;;;;;;;;;5115188;27;20522;-78
2022/01/18 11:36:03;;;;;;;15.95;10.77;;;;;;;;;;5115998;27;20081;-79
2022/01/18 11:38:35;;;;;;;47.88;23.58;;;;;;;;;;5115808;27;20080;-78
2022/01/18 11:41:02;;;;;;;22.45;12.02;;;;;;;;;;5113990;28;20019;-79
2022/01/18 11:43:40;;;;;;;26.52;11.40;;;;;;;;;;5115750;27;20027;-78
2022/01/18 11:46:22;;;;;;;16.40;7.75;;;;;;;;;;5112634;28;20023;-78
2022/01/18 11:48:48;;;;;;;57.47;31.20;;;;;;;;;;5113632;27;20027;-78
2022/01/18 11:51:18;;;;;;;17.77;8.10;;;;;;;;;;5113955;28;20023;-78
2022/01/18 11:53:54;;;;;;;35.58;18.05;;;;;;;;;;5113619;28;20089;-79
2022/01/18 11:56:33;;;;;;;23.75;12.63;;;;;;;;;;5115544;27;20058;-78
2022/01/18 11:59:13;;;;;;;30.02;15.50;;;;;;;;;;5114575;28;20030;-79
2022/01/18 12:01:58;;;;;;;23.92;12.13;;;;;;;;;;5113834;28;20023;-78
2022/01/18 12:04:47;;;;;;;26.20;9.30;;;;;;;;;;5113106;28;20099;-80
2022/01/18 12:07:30;;;;;;;18.63;8.88;;;;;;;;;;5115165;27;20046;-78
2022/01/18 12:09:56;;;;;;;15.95;7.95;;;;;;;;;;5113940;28;20113;-79
2022/01/18 12:12:40;;;;;;;12.73;7.60;;;;;;;;;;5113619;28;20565;-79
2022/01/18 12:15:18;;;;;;;17.95;9.15;;;;;;;;;;5113695;28;20027;-78
2022/01/18 12:17:57;;;;;;;22.08;10.48;;;;;;;;;;5114071;28;20061;-78
2022/01/18 12:20:32;;;;;;;10.18;5.85;;;;;;;;;;5116078;27;20488;-78
2022/01/18 12:23:01;;;;;;;22.63;13.40;;;;;;;;;;5113872;28;20027;-78
2022/01/18 12:25:28;;;;;;;12.93;7.90;;;;;;;;;;5114106;28;20023;-78
2022/01/18 12:27:55;;;;;;;11.85;6.93;;;;;;;;;;5115993;27;20031;-78
2022/01/18 12:30:42;;;;;;;10.43;6.32;;;;;;;;;;5113906;28;20038;-79
2022/01/18 12:33:17;;;;;;;11.88;6.88;;;;;;;;;;5113841;28;20034;-80
2022/01/18 12:35:43;;;;;;;15.18;6.88;;;;;;;;;;5115019;27;20023;-78
2022/01/18 12:38:10;;;;;;;11.40;5.00;;;;;;;;;;5113886;28;20027;-79
2022/01/18 12:40:44;;;;;;;14.95;10.50;;;;;;;;;;5108439;28;20023;-78
2022/01/18 12:45:37;;;;;;;15.68;6.53;;;;;;;;;;5095078;28;20054;-78
2022/01/18 12:48:09;;;;;;;11.65;5.82;;;;;;;;;;5093189;28;20177;-78
2022/01/18 12:50:38;;;;;;;15.55;8.05;;;;;;;;;;5096852;28;20519;-78
2022/01/18 12:53:08;;;;;;;13.82;8.40;;;;;;;;;;5097189;28;20184;-78
2022/01/18 12:55:35;;;;;;;;;;;;;;;;;;5096856;28;20034;-77
2022/01/18 12:58:20;;;;;;;13.73;8.23;;;;;;;;;;5104091;27;20376;-79
2022/01/18 13:01:09;;;;;;;12.02;6.18;;;;;;;;;;5103389;27;20534;-78
2022/01/18 13:03:36;;;;;;;9.82;5.95;;;;;;;;;;5103059;27;20056;-78
2022/01/18 13:06:08;;;;;;;12.68;7.57;;;;;;;;;;5118260;27;20050;-78
2022/01/18 13:08:39;;;;;;;14.13;7.47;;;;;;;;;;5116515;27;20094;-77
2022/01/18 13:11:05;;;;;;;22.10;10.63;;;;;;;;;;5118308;27;20084;-77
2022/01/18 13:13:31;;;;;;;16.83;7.80;;;;;;;;;;5108592;27;20027;-79
2022/01/18 13:24:06;;;;;;;25.65;14.43;;;;;;;;;;5118079;27;20537;-79
2022/01/18 13:26:34;;;;;;;33.67;15.55;;;;;;;;;;5118381;27;20076;-77
2022/01/18 13:29:20;;;;;;;30.75;13.05;;;;;;;;;;5117123;27;20106;-77
2022/01/18 13:31:48;;;;;;;19.83;10.02;;;;;;;;;;5115451;27;20393;-78
2022/01/18 13:34:16;;;;;;;15.52;9.77;;;;;;;;;;5116491;27;20023;-79
2022/01/18 13:37:03;;;;;;;28.25;16.52;;;;;;;;;;5116728;27;20397;-77
2022/01/18 13:39:31;;;;;;;13.50;8.90;;;;;;;;;;5116312;27;20019;-78
2022/01/18 13:42:00;;;;;;;17.88;10.93;;;;;;;;;;5117996;27;20362;-78
2022/01/18 13:44:27;;;;;;;11.05;7.05;;;;;;;;;;5116383;27;20512;-78
2022/01/18 13:46:56;;;;;;;10.15;5.82;;;;;;;;;;5117569;27;20054;-77
2022/01/18 13:49:23;;;;;;;7.70;4.47;;;;;;;;;;5116397;27;20412;-78
2022/01/18 13:52:08;;;;;;;14.70;6.35;;;;;;;;;;5117732;27;20106;-77
2022/01/18 13:54:50;;;;;;;8.38;3.80;;;;;;;;;;5117854;27;20496;-77
2022/01/18 13:57:22;;;;;;;14.88;7.63;;;;;;;;;;5117818;27;20427;-78
2022/01/18 13:59:49;;;;;;;19.63;11.48;;;;;;;;;;5115572;27;20028;-78
2022/01/18 14:02:40;;;;;;;21.83;12.85;;;;;;;;;;5117884;27;20019;-79
2022/01/18 14:05:06;;;;;;;13.32;5.78;;;;;;;;;;5114746;27;20031;-78
2022/01/18 14:07:32;;;;;;;11.65;7.78;;;;;;;;;;5115721;27;20019;-79
2022/01/18 14:09:58;;;;;;;17.20;7.47;;;;;;;;;;5117807;27;20023;-77
2022/01/18 14:12:28;;;;;;;17.20;7.95;;;;;;;;;;5115199;27;20184;-78
2022/01/18 14:14:53;;;;;;;13.93;8.38;;;;;;;;;;5116818;27;20134;-79
2022/01/18 14:17:19;;;;;;;22.75;7.68;;;;;;;;;;5117283;27;20136;-79
2022/01/18 14:19:45;;;;;;;13.73;6.43;;;;;;;;;;5116656;27;20020;-79
2022/01/18 14:22:18;;;;;;;12.40;7.10;;;;;;;;;;5115366;27;20434;-79
2022/01/18 14:24:44;;;;;;;29.20;13.98;;;;;;;;;;5116859;27;20034;-79
2022/01/18 14:27:15;;;;;;;61.95;24.27;;;;;;;;;;5111249;27;20031;-78
2022/01/18 14:29:40;;;;;;;25.05;10.68;;;;;;;;;;5110413;27;20127;-76
2022/01/18 14:32:09;;;;;;;18.60;10.13;;;;;;;;;;5094693;28;20158;-78
2022/01/18 14:34:36;;;;;;;31.48;17.58;;;;;;;;;;5098157;27;20535;-78
2022/01/18 14:37:02;;;;;;;45.65;25.83;;;;;;;;;;5103826;27;20104;-78
2022/01/18 14:39:27;;;;;;;30.02;15.45;;;;;;;;;;5096236;27;20789;-77
2022/01/18 14:41:56;;;;;;;31.27;14.50;;;;;;;;;;5107672;27;20023;-78
2022/01/18 14:44:35;;;;;;;29.15;15.50;;;;;;;;;;5111409;27;20026;-78
2022/01/18 14:49:45;;;;;;;27.42;13.30;;;;;;;;;;5115695;27;20025;-78
2022/01/18 14:52:10;;;;;;;33.65;18.05;;;;;;;;;;5114510;27;20114;-78
2022/01/18 14:54:37;;;;;;;31.33;18.00;;;;;;;;;;5115342;27;20092;-77
2022/01/18 14:57:02;;;;;;;44.85;23.52;;;;;;;;;;5114850;27;20105;-79
2022/01/18 14:59:28;;;;;;;39.65;22.08;;;;;;;;;;5105819;27;20020;-79
2022/01/18 15:01:53;;;;;;;37.90;20.35;;;;;;;;;;5095496;28;20019;-77
2022/01/18 15:04:19;;;;;;;29.90;14.88;;;;;;;;;;5094117;28;20024;-79
2022/01/18 15:06:44;;;;;;;36.22;17.27;;;;;;;;;;5094219;28;20023;-78
2022/01/18 15:09:10;;;;;;;46.28;24.58;;;;;;;;;;5094087;28;20075;-79
2022/01/18 15:11:36;;;;;;;32.95;17.33;;;;;;;;;;5094674;28;20172;-77
2022/01/18 15:14:03;;;;;;;24.80;15.93;;;;;;;;;;5093719;28;20096;-78
2022/01/18 15:16:29;;;;;;;45.15;22.90;;;;;;;;;;5093623;28;20050;-78
2022/01/18 15:18:54;;;;;;;19.75;11.75;;;;;;;;;;5094094;28;20450;-77
2022/01/18 15:21:19;;;;;;;15.95;8.27;;;;;;;;;;5095839;28;20024;-75
2022/01/18 15:23:45;;;;;;;23.98;11.05;;;;;;;;;;5093989;28;20049;-77
2022/01/18 15:26:11;;;;;;;24.73;11.65;;;;;;;;;;5095415;28;20355;-75
2022/01/18 15:28:37;;;;;;;28.80;16.48;;;;;;;;;;5099617;27;20047;-76
2022/01/18 15:31:03;;;;;;;25.42;15.65;;;;;;;;;;5100909;27;20127;-75
2022/01/18 15:33:29;;;;;;;20.38;10.10;;;;;;;;;;5104343;27;20015;-77
2022/01/18 15:35:54;;;;;;;117.90;56.75;;;;;;;;;;5106268;27;20067;-75
2022/01/18 15:38:20;;;;;;;127.85;57.58;;;;;;;;;;5114767;27;20030;-76
2022/01/18 15:40:46;;;;;;;159.35;72.60;;;;;;;;;;5104408;27;20065;-76
2022/01/18 15:43:11;;;;;;;108.28;46.38;;;;;;;;;;5102868;28;20110;-76